sensor_id;sensor_type;location;lat;lon;timestamp;P1;durP1;ratioP1;P2;durP2;ratioP2
66272;SDS011;58450;52.150;4.466;2023-04-01T00:00:47;63.65;;;11.15;;
66272;SDS011;58450;52.150;4.466;2023-04-01T00:03:17;51.35;;;9.52;;
66272;SDS011;58450;52.150;4.466;2023-04-01T00:05:44;60.03;;;10.05;;
66272;SDS011;58450;52.150;4.466;2023-04-01T00:08:12;58.83;;;9.07;;
66272;SDS011;58450;52.150;4.466;2023-04-01T00:10:41;44.78;;;8.82;;
66272;SDS011;58450;52.150;4.466;2023-04-01T00:13:09;52.60;;;9.18;;
66272;SDS011;58450;52.150;4.466;2023-04-01T00:15:37;41.17;;;9.05;;
66272;SDS011;58450;52.150;4.466;2023-04-01T00:18:05;55.33;;;9.95;;
66272;SDS011;58450;52.150;4.466;2023-04-01T00:20:34;39.08;;;8.85;;
66272;SDS011;58450;52.150;4.466;2023-04-01T00:23:02;43.42;;;8.35;;
66272;SDS011;58450;52.150;4.466;2023-04-01T00:25:30;54.10;;;9.05;;
66272;SDS011;58450;52.150;4.466;2023-04-01T00:27:58;50.95;;;8.75;;
66272;SDS011;58450;52.150;4.466;2023-04-01T00:30:25;54.22;;;9.40;;
66272;SDS011;58450;52.150;4.466;2023-04-01T00:32:53;49.15;;;8.40;;
66272;SDS011;58450;52.150;4.466;2023-04-01T00:35:21;47.90;;;8.63;;
66272;SDS011;58450;52.150;4.466;2023-04-01T00:37:50;43.45;;;8.75;;
66272;SDS011;58450;52.150;4.466;2023-04-01T00:40:23;44.97;;;8.05;;
66272;SDS011;58450;52.150;4.466;2023-04-01T00:42:54;43.78;;;8.27;;
66272;SDS011;58450;52.150;4.466;2023-04-01T00:45:27;43.03;;;8.70;;
66272;SDS011;58450;52.150;4.466;2023-04-01T00:47:59;49.05;;;8.07;;
66272;SDS011;58450;52.150;4.466;2023-04-01T00:50:33;53.05;;;9.50;;
66272;SDS011;58450;52.150;4.466;2023-04-01T00:53:04;31.90;;;7.53;;
66272;SDS011;58450;52.150;4.466;2023-04-01T00:55:35;31.40;;;7.13;;
66272;SDS011;58450;52.150;4.466;2023-04-01T00:58:13;33.00;;;7.85;;
66272;SDS011;58450;52.150;4.466;2023-04-01T01:00:45;29.80;;;7.45;;
66272;SDS011;58450;52.150;4.466;2023-04-01T01:03:17;36.47;;;7.45;;
66272;SDS011;58450;52.150;4.466;2023-04-01T01:08:43;29.00;;;7.32;;
66272;SDS011;58450;52.150;4.466;2023-04-01T01:11:35;35.72;;;7.50;;
66272;SDS011;58450;52.150;4.466;2023-04-01T01:14:15;29.95;;;6.55;;
66272;SDS011;58450;52.150;4.466;2023-04-01T01:16:53;29.73;;;7.68;;
66272;SDS011;58450;52.150;4.466;2023-04-01T01:19:35;32.28;;;7.50;;
66272;SDS011;58450;52.150;4.466;2023-04-01T01:22:31;19.90;;;6.32;;
66272;SDS011;58450;52.150;4.466;2023-04-01T01:25:25;33.53;;;8.20;;
66272;SDS011;58450;52.150;4.466;2023-04-01T01:28:13;21.98;;;7.15;;
66272;SDS011;58450;52.150;4.466;2023-04-01T01:31:02;26.60;;;7.75;;
66272;SDS011;58450;52.150;4.466;2023-04-01T01:33:47;24.13;;;8.43;;
66272;SDS011;58450;52.150;4.466;2023-04-01T01:36:31;30.38;;;8.95;;
66272;SDS011;58450;52.150;4.466;2023-04-01T01:39:01;31.33;;;8.95;;
66272;SDS011;58450;52.150;4.466;2023-04-01T01:41:32;35.33;;;9.95;;
66272;SDS011;58450;52.150;4.466;2023-04-01T01:44:03;34.28;;;9.27;;
66272;SDS011;58450;52.150;4.466;2023-04-01T01:46:35;36.00;;;10.48;;
66272;SDS011;58450;52.150;4.466;2023-04-01T01:49:06;33.00;;;8.65;;
66272;SDS011;58450;52.150;4.466;2023-04-01T01:51:39;40.35;;;9.90;;
66272;SDS011;58450;52.150;4.466;2023-04-01T01:54:11;34.85;;;9.50;;
66272;SDS011;58450;52.150;4.466;2023-04-01T01:56:39;33.08;;;8.73;;
66272;SDS011;58450;52.150;4.466;2023-04-01T01:59:12;33.70;;;9.63;;
66272;SDS011;58450;52.150;4.466;2023-04-01T02:01:45;33.05;;;8.45;;
66272;SDS011;58450;52.150;4.466;2023-04-01T02:04:18;26.58;;;7.75;;
66272;SDS011;58450;52.150;4.466;2023-04-01T02:06:50;27.83;;;7.25;;
66272;SDS011;58450;52.150;4.466;2023-04-01T02:09:24;23.65;;;7.75;;
66272;SDS011;58450;52.150;4.466;2023-04-01T02:11:53;25.48;;;7.32;;
66272;SDS011;58450;52.150;4.466;2023-04-01T02:14:26;22.48;;;7.32;;
66272;SDS011;58450;52.150;4.466;2023-04-01T02:16:59;24.25;;;6.88;;
66272;SDS011;58450;52.150;4.466;2023-04-01T02:19:36;26.35;;;8.57;;
66272;SDS011;58450;52.150;4.466;2023-04-01T02:22:10;28.90;;;9.25;;
66272;SDS011;58450;52.150;4.466;2023-04-01T02:24:44;38.40;;;11.25;;
66272;SDS011;58450;52.150;4.466;2023-04-01T02:27:12;35.38;;;11.48;;
66272;SDS011;58450;52.150;4.466;2023-04-01T02:29:40;32.22;;;11.57;;
66272;SDS011;58450;52.150;4.466;2023-04-01T02:32:08;35.90;;;12.35;;
66272;SDS011;58450;52.150;4.466;2023-04-01T02:34:37;41.88;;;13.80;;
66272;SDS011;58450;52.150;4.466;2023-04-01T02:37:05;42.10;;;13.65;;
66272;SDS011;58450;52.150;4.466;2023-04-01T02:39:35;38.95;;;14.38;;
66272;SDS011;58450;52.150;4.466;2023-04-01T02:42:02;37.78;;;14.50;;
66272;SDS011;58450;52.150;4.466;2023-04-01T02:44:30;38.90;;;13.18;;
66272;SDS011;58450;52.150;4.466;2023-04-01T02:46:58;38.28;;;13.98;;
66272;SDS011;58450;52.150;4.466;2023-04-01T02:49:25;46.47;;;14.75;;
66272;SDS011;58450;52.150;4.466;2023-04-01T02:51:53;41.42;;;12.95;;
66272;SDS011;58450;52.150;4.466;2023-04-01T02:54:21;40.72;;;13.48;;
66272;SDS011;58450;52.150;4.466;2023-04-01T02:56:49;38.72;;;14.77;;
66272;SDS011;58450;52.150;4.466;2023-04-01T02:59:17;33.75;;;13.70;;
66272;SDS011;58450;52.150;4.466;2023-04-01T03:01:44;34.15;;;13.57;;
66272;SDS011;58450;52.150;4.466;2023-04-01T03:04:12;34.63;;;13.20;;
66272;SDS011;58450;52.150;4.466;2023-04-01T03:06:40;34.70;;;13.07;;
66272;SDS011;58450;52.150;4.466;2023-04-01T03:09:07;32.00;;;12.68;;
66272;SDS011;58450;52.150;4.466;2023-04-01T03:11:35;32.40;;;12.50;;
66272;SDS011;58450;52.150;4.466;2023-04-01T03:14:04;29.58;;;11.80;;
66272;SDS011;58450;52.150;4.466;2023-04-01T03:16:31;29.23;;;11.65;;
66272;SDS011;58450;52.150;4.466;2023-04-01T03:18:59;32.55;;;12.35;;
66272;SDS011;58450;52.150;4.466;2023-04-01T03:21:27;28.38;;;10.80;;
66272;SDS011;58450;52.150;4.466;2023-04-01T03:23:55;23.95;;;9.65;;
66272;SDS011;58450;52.150;4.466;2023-04-01T03:26:23;19.67;;;8.70;;
66272;SDS011;58450;52.150;4.466;2023-04-01T03:28:52;20.27;;;7.80;;
66272;SDS011;58450;52.150;4.466;2023-04-01T03:31:22;21.33;;;8.48;;
66272;SDS011;58450;52.150;4.466;2023-04-01T03:33:50;24.98;;;9.95;;
66272;SDS011;58450;52.150;4.466;2023-04-01T03:36:18;24.98;;;9.35;;
66272;SDS011;58450;52.150;4.466;2023-04-01T03:38:45;25.30;;;10.23;;
66272;SDS011;58450;52.150;4.466;2023-04-01T03:41:14;27.48;;;11.10;;
66272;SDS011;58450;52.150;4.466;2023-04-01T03:43:43;27.00;;;11.18;;
66272;SDS011;58450;52.150;4.466;2023-04-01T03:46:16;27.48;;;11.02;;
66272;SDS011;58450;52.150;4.466;2023-04-01T03:48:46;33.50;;;14.00;;
66272;SDS011;58450;52.150;4.466;2023-04-01T03:51:14;34.20;;;13.48;;
66272;SDS011;58450;52.150;4.466;2023-04-01T03:53:41;34.05;;;13.40;;
66272;SDS011;58450;52.150;4.466;2023-04-01T03:56:09;32.05;;;13.73;;
66272;SDS011;58450;52.150;4.466;2023-04-01T03:58:37;32.80;;;14.68;;
66272;SDS011;58450;52.150;4.466;2023-04-01T04:01:12;33.72;;;15.02;;
66272;SDS011;58450;52.150;4.466;2023-04-01T04:03:42;33.92;;;13.68;;
66272;SDS011;58450;52.150;4.466;2023-04-01T04:06:12;29.92;;;13.30;;
66272;SDS011;58450;52.150;4.466;2023-04-01T04:08:40;28.08;;;13.38;;
66272;SDS011;58450;52.150;4.466;2023-04-01T04:11:08;30.13;;;13.23;;
66272;SDS011;58450;52.150;4.466;2023-04-01T04:13:35;32.05;;;13.40;;
66272;SDS011;58450;52.150;4.466;2023-04-01T04:16:03;31.58;;;13.05;;
66272;SDS011;58450;52.150;4.466;2023-04-01T04:18:32;32.38;;;13.55;;
66272;SDS011;58450;52.150;4.466;2023-04-01T04:21:00;30.50;;;13.55;;
66272;SDS011;58450;52.150;4.466;2023-04-01T04:23:29;31.58;;;12.85;;
66272;SDS011;58450;52.150;4.466;2023-04-01T04:26:00;34.15;;;14.70;;
66272;SDS011;58450;52.150;4.466;2023-04-01T04:28:31;34.88;;;14.32;;
66272;SDS011;58450;52.150;4.466;2023-04-01T04:31:00;31.58;;;14.57;;
66272;SDS011;58450;52.150;4.466;2023-04-01T04:33:28;35.30;;;14.10;;
66272;SDS011;58450;52.150;4.466;2023-04-01T04:35:56;36.47;;;14.63;;
66272;SDS011;58450;52.150;4.466;2023-04-01T04:38:26;34.65;;;13.98;;
66272;SDS011;58450;52.150;4.466;2023-04-01T04:40:55;33.13;;;13.80;;
66272;SDS011;58450;52.150;4.466;2023-04-01T04:43:24;35.40;;;13.63;;
66272;SDS011;58450;52.150;4.466;2023-04-01T04:45:51;29.88;;;13.20;;
66272;SDS011;58450;52.150;4.466;2023-04-01T04:48:19;32.10;;;12.70;;
66272;SDS011;58450;52.150;4.466;2023-04-01T04:50:47;32.47;;;12.90;;
66272;SDS011;58450;52.150;4.466;2023-04-01T04:53:16;34.67;;;13.52;;
66272;SDS011;58450;52.150;4.466;2023-04-01T04:55:45;30.25;;;12.95;;
66272;SDS011;58450;52.150;4.466;2023-04-01T04:58:16;38.40;;;14.10;;
66272;SDS011;58450;52.150;4.466;2023-04-01T05:00:45;34.47;;;12.93;;
66272;SDS011;58450;52.150;4.466;2023-04-01T05:03:13;38.60;;;13.88;;
66272;SDS011;58450;52.150;4.466;2023-04-01T05:05:47;36.05;;;13.55;;
66272;SDS011;58450;52.150;4.466;2023-04-01T05:08:16;32.88;;;12.60;;
66272;SDS011;58450;52.150;4.466;2023-04-01T05:10:44;36.50;;;14.77;;
66272;SDS011;58450;52.150;4.466;2023-04-01T05:13:11;38.85;;;14.23;;
66272;SDS011;58450;52.150;4.466;2023-04-01T05:15:40;35.80;;;13.40;;
66272;SDS011;58450;52.150;4.466;2023-04-01T05:18:08;32.05;;;12.55;;
66272;SDS011;58450;52.150;4.466;2023-04-01T05:20:35;35.53;;;13.90;;
66272;SDS011;58450;52.150;4.466;2023-04-01T05:23:03;33.80;;;13.32;;
66272;SDS011;58450;52.150;4.466;2023-04-01T05:25:30;36.67;;;13.23;;
66272;SDS011;58450;52.150;4.466;2023-04-01T05:27:58;34.28;;;12.70;;
66272;SDS011;58450;52.150;4.466;2023-04-01T05:30:25;35.47;;;12.60;;
66272;SDS011;58450;52.150;4.466;2023-04-01T05:32:54;33.28;;;12.77;;
66272;SDS011;58450;52.150;4.466;2023-04-01T05:35:22;35.53;;;13.02;;
66272;SDS011;58450;52.150;4.466;2023-04-01T05:37:50;29.88;;;12.30;;
66272;SDS011;58450;52.150;4.466;2023-04-01T05:40:18;29.02;;;11.88;;
66272;SDS011;58450;52.150;4.466;2023-04-01T05:42:46;29.13;;;11.60;;
66272;SDS011;58450;52.150;4.466;2023-04-01T05:45:13;30.10;;;13.10;;
66272;SDS011;58450;52.150;4.466;2023-04-01T05:47:41;31.38;;;12.85;;
66272;SDS011;58450;52.150;4.466;2023-04-01T05:50:10;29.35;;;12.77;;
66272;SDS011;58450;52.150;4.466;2023-04-01T05:52:38;31.90;;;13.02;;
66272;SDS011;58450;52.150;4.466;2023-04-01T05:55:06;30.48;;;12.07;;
66272;SDS011;58450;52.150;4.466;2023-04-01T05:57:34;28.88;;;12.15;;
66272;SDS011;58450;52.150;4.466;2023-04-01T06:00:02;29.33;;;12.15;;
66272;SDS011;58450;52.150;4.466;2023-04-01T06:02:31;29.95;;;11.82;;
66272;SDS011;58450;52.150;4.466;2023-04-01T06:05:02;30.42;;;12.60;;
66272;SDS011;58450;52.150;4.466;2023-04-01T06:07:49;28.83;;;12.00;;
66272;SDS011;58450;52.150;4.466;2023-04-01T06:10:20;27.60;;;11.93;;
66272;SDS011;58450;52.150;4.466;2023-04-01T06:12:51;27.40;;;10.60;;
66272;SDS011;58450;52.150;4.466;2023-04-01T06:18:13;30.38;;;12.48;;
66272;SDS011;58450;52.150;4.466;2023-04-01T06:21:23;27.75;;;12.15;;
66272;SDS011;58450;52.150;4.466;2023-04-01T06:24:19;25.35;;;11.70;;
66272;SDS011;58450;52.150;4.466;2023-04-01T06:27:07;32.95;;;12.50;;
66272;SDS011;58450;52.150;4.466;2023-04-01T06:29:59;28.63;;;12.63;;
66272;SDS011;58450;52.150;4.466;2023-04-01T06:32:55;21.10;;;10.18;;
66272;SDS011;58450;52.150;4.466;2023-04-01T06:35:50;25.63;;;12.13;;
66272;SDS011;58450;52.150;4.466;2023-04-01T06:38:39;23.95;;;10.30;;
66272;SDS011;58450;52.150;4.466;2023-04-01T06:44:44;20.83;;;10.32;;
66272;SDS011;58450;52.150;4.466;2023-04-01T06:47:32;25.35;;;12.38;;
66272;SDS011;58450;52.150;4.466;2023-04-01T06:50:17;24.92;;;11.85;;
66272;SDS011;58450;52.150;4.466;2023-04-01T06:52:55;25.83;;;12.35;;
66272;SDS011;58450;52.150;4.466;2023-04-01T06:55:40;22.70;;;12.10;;
66272;SDS011;58450;52.150;4.466;2023-04-01T06:58:13;24.50;;;10.95;;
66272;SDS011;58450;52.150;4.466;2023-04-01T07:00:49;23.83;;;10.85;;
66272;SDS011;58450;52.150;4.466;2023-04-01T07:03:23;24.00;;;11.20;;
66272;SDS011;58450;52.150;4.466;2023-04-01T07:06:01;22.33;;;10.93;;
66272;SDS011;58450;52.150;4.466;2023-04-01T07:08:33;26.75;;;12.13;;
66272;SDS011;58450;52.150;4.466;2023-04-01T07:11:10;28.95;;;11.52;;
66272;SDS011;58450;52.150;4.466;2023-04-01T07:13:54;26.20;;;11.80;;
66272;SDS011;58450;52.150;4.466;2023-04-01T07:16:28;29.67;;;11.43;;
66272;SDS011;58450;52.150;4.466;2023-04-01T07:19:02;27.05;;;9.88;;
66272;SDS011;58450;52.150;4.466;2023-04-01T07:24:11;26.87;;;11.43;;
66272;SDS011;58450;52.150;4.466;2023-04-01T07:26:52;28.17;;;11.43;;
66272;SDS011;58450;52.150;4.466;2023-04-01T07:29:22;29.45;;;11.50;;
66272;SDS011;58450;52.150;4.466;2023-04-01T07:34:56;27.42;;;11.75;;
66272;SDS011;58450;52.150;4.466;2023-04-01T07:37:39;24.48;;;11.23;;
66272;SDS011;58450;52.150;4.466;2023-04-01T07:40:21;22.38;;;9.43;;
66272;SDS011;58450;52.150;4.466;2023-04-01T07:46:30;27.73;;;10.60;;
66272;SDS011;58450;52.150;4.466;2023-04-01T07:49:25;29.75;;;11.93;;
66272;SDS011;58450;52.150;4.466;2023-04-01T07:52:01;31.40;;;11.13;;
66272;SDS011;58450;52.150;4.466;2023-04-01T07:54:37;26.88;;;10.88;;
66272;SDS011;58450;52.150;4.466;2023-04-01T07:57:15;32.15;;;13.13;;
66272;SDS011;58450;52.150;4.466;2023-04-01T07:59:52;30.65;;;13.02;;
66272;SDS011;58450;52.150;4.466;2023-04-01T08:02:30;29.02;;;11.18;;
66272;SDS011;58450;52.150;4.466;2023-04-01T08:05:18;26.05;;;11.45;;
66272;SDS011;58450;52.150;4.466;2023-04-01T08:07:55;27.00;;;11.65;;
66272;SDS011;58450;52.150;4.466;2023-04-01T08:10:36;26.80;;;11.02;;
66272;SDS011;58450;52.150;4.466;2023-04-01T08:13:15;25.23;;;10.65;;
66272;SDS011;58450;52.150;4.466;2023-04-01T08:16:01;31.25;;;12.15;;
66272;SDS011;58450;52.150;4.466;2023-04-01T08:18:43;33.70;;;13.07;;
66272;SDS011;58450;52.150;4.466;2023-04-01T08:21:24;34.42;;;13.25;;
66272;SDS011;58450;52.150;4.466;2023-04-01T08:24:00;30.67;;;12.63;;
66272;SDS011;58450;52.150;4.466;2023-04-01T08:26:44;27.92;;;12.35;;
66272;SDS011;58450;52.150;4.466;2023-04-01T08:29:19;29.65;;;11.80;;
66272;SDS011;58450;52.150;4.466;2023-04-01T08:31:55;28.35;;;11.40;;
66272;SDS011;58450;52.150;4.466;2023-04-01T08:34:31;32.60;;;12.07;;
66272;SDS011;58450;52.150;4.466;2023-04-01T08:37:04;31.70;;;11.90;;
66272;SDS011;58450;52.150;4.466;2023-04-01T08:39:39;34.25;;;12.30;;
66272;SDS011;58450;52.150;4.466;2023-04-01T08:45:04;32.38;;;11.40;;
66272;SDS011;58450;52.150;4.466;2023-04-01T08:48:21;31.70;;;12.15;;
66272;SDS011;58450;52.150;4.466;2023-04-01T08:54:25;32.10;;;11.70;;
66272;SDS011;58450;52.150;4.466;2023-04-01T08:57:33;31.15;;;12.18;;
66272;SDS011;58450;52.150;4.466;2023-04-01T09:00:21;35.65;;;12.07;;
66272;SDS011;58450;52.150;4.466;2023-04-01T09:03:10;32.88;;;12.05;;
66272;SDS011;58450;52.150;4.466;2023-04-01T09:09:04;33.55;;;12.35;;
66272;SDS011;58450;52.150;4.466;2023-04-01T09:12:13;31.80;;;10.95;;
66272;SDS011;58450;52.150;4.466;2023-04-01T09:15:01;26.38;;;10.50;;
66272;SDS011;58450;52.150;4.466;2023-04-01T09:18:09;21.73;;;9.52;;
66272;SDS011;58450;52.150;4.466;2023-04-01T09:21:00;21.33;;;9.15;;
66272;SDS011;58450;52.150;4.466;2023-04-01T09:24:05;17.48;;;7.80;;
66272;SDS011;58450;52.150;4.466;2023-04-01T09:27:02;19.77;;;8.45;;
66272;SDS011;58450;52.150;4.466;2023-04-01T09:29:42;21.02;;;9.25;;
66272;SDS011;58450;52.150;4.466;2023-04-01T09:32:54;22.45;;;9.88;;
66272;SDS011;58450;52.150;4.466;2023-04-01T09:36:04;22.50;;;10.80;;
66272;SDS011;58450;52.150;4.466;2023-04-01T09:38:50;23.88;;;10.45;;
66272;SDS011;58450;52.150;4.466;2023-04-01T09:41:27;27.13;;;11.77;;
66272;SDS011;58450;52.150;4.466;2023-04-01T09:44:02;28.10;;;11.57;;
66272;SDS011;58450;52.150;4.466;2023-04-01T09:46:44;28.55;;;12.13;;
66272;SDS011;58450;52.150;4.466;2023-04-01T09:49:37;32.75;;;13.68;;
66272;SDS011;58450;52.150;4.466;2023-04-01T09:52:31;31.15;;;13.15;;
66272;SDS011;58450;52.150;4.466;2023-04-01T09:55:22;40.25;;;13.90;;
66272;SDS011;58450;52.150;4.466;2023-04-01T09:58:28;33.22;;;14.05;;
66272;SDS011;58450;52.150;4.466;2023-04-01T10:04:41;29.35;;;11.70;;
66272;SDS011;58450;52.150;4.466;2023-04-01T10:07:56;35.88;;;12.77;;
66272;SDS011;58450;52.150;4.466;2023-04-01T10:14:36;36.42;;;13.88;;
66272;SDS011;58450;52.150;4.466;2023-04-01T10:20:55;33.22;;;12.18;;
66272;SDS011;58450;52.150;4.466;2023-04-01T10:23:46;32.08;;;12.63;;
66272;SDS011;58450;52.150;4.466;2023-04-01T10:26:50;27.13;;;11.50;;
66272;SDS011;58450;52.150;4.466;2023-04-01T10:33:08;26.65;;;9.32;;
66272;SDS011;58450;52.150;4.466;2023-04-01T10:36:18;28.05;;;10.85;;
66272;SDS011;58450;52.150;4.466;2023-04-01T10:42:50;25.30;;;9.77;;
66272;SDS011;58450;52.150;4.466;2023-04-01T11:01:55;20.33;;;9.40;;
66272;SDS011;58450;52.150;4.466;2023-04-01T11:08:39;23.83;;;10.23;;
66272;SDS011;58450;52.150;4.466;2023-04-01T11:15:25;22.10;;;10.05;;
66272;SDS011;58450;52.150;4.466;2023-04-01T11:22:19;18.70;;;8.68;;
66272;SDS011;58450;52.150;4.466;2023-04-01T11:25:24;19.63;;;8.48;;
66272;SDS011;58450;52.150;4.466;2023-04-01T11:28:21;18.02;;;8.13;;
66272;SDS011;58450;52.150;4.466;2023-04-01T11:31:25;16.92;;;7.78;;
66272;SDS011;58450;52.150;4.466;2023-04-01T11:34:11;19.08;;;8.25;;
66272;SDS011;58450;52.150;4.466;2023-04-01T11:36:57;20.50;;;9.15;;
66272;SDS011;58450;52.150;4.466;2023-04-01T11:39:44;14.13;;;6.85;;
66272;SDS011;58450;52.150;4.466;2023-04-01T11:42:28;15.20;;;6.97;;
66272;SDS011;58450;52.150;4.466;2023-04-01T11:45:13;14.95;;;6.80;;
66272;SDS011;58450;52.150;4.466;2023-04-01T11:48:00;12.90;;;6.38;;
66272;SDS011;58450;52.150;4.466;2023-04-01T11:50:55;14.98;;;7.45;;
66272;SDS011;58450;52.150;4.466;2023-04-01T11:53:44;15.27;;;7.07;;
66272;SDS011;58450;52.150;4.466;2023-04-01T11:56:30;18.45;;;8.77;;
66272;SDS011;58450;52.150;4.466;2023-04-01T12:02:34;18.35;;;8.88;;
66272;SDS011;58450;52.150;4.466;2023-04-01T12:05:32;16.77;;;7.85;;
66272;SDS011;58450;52.150;4.466;2023-04-01T12:08:13;20.00;;;8.73;;
66272;SDS011;58450;52.150;4.466;2023-04-01T12:10:57;18.15;;;8.45;;
66272;SDS011;58450;52.150;4.466;2023-04-01T12:13:38;18.17;;;7.80;;
66272;SDS011;58450;52.150;4.466;2023-04-01T12:16:17;18.05;;;8.82;;
66272;SDS011;58450;52.150;4.466;2023-04-01T12:19:20;22.17;;;8.07;;
66272;SDS011;58450;52.150;4.466;2023-04-01T12:22:14;19.95;;;8.32;;
66272;SDS011;58450;52.150;4.466;2023-04-01T12:25:00;19.75;;;8.23;;
66272;SDS011;58450;52.150;4.466;2023-04-01T12:27:58;22.23;;;8.52;;
66272;SDS011;58450;52.150;4.466;2023-04-01T12:30:42;18.53;;;7.80;;
66272;SDS011;58450;52.150;4.466;2023-04-01T12:33:25;21.58;;;8.48;;
66272;SDS011;58450;52.150;4.466;2023-04-01T12:36:19;17.67;;;6.88;;
66272;SDS011;58450;52.150;4.466;2023-04-01T12:45:30;20.90;;;6.78;;
66272;SDS011;58450;52.150;4.466;2023-04-01T12:51:39;19.63;;;6.47;;
66272;SDS011;58450;52.150;4.466;2023-04-01T12:58:06;17.55;;;5.28;;
66272;SDS011;58450;52.150;4.466;2023-04-01T13:01:13;15.02;;;4.82;;
66272;SDS011;58450;52.150;4.466;2023-04-01T13:04:05;14.30;;;4.47;;
66272;SDS011;58450;52.150;4.466;2023-04-01T13:07:21;14.30;;;4.57;;
66272;SDS011;58450;52.150;4.466;2023-04-01T13:10:15;13.63;;;4.47;;
66272;SDS011;58450;52.150;4.466;2023-04-01T13:16:17;11.73;;;3.42;;
66272;SDS011;58450;52.150;4.466;2023-04-01T13:18:54;13.90;;;3.95;;
66272;SDS011;58450;52.150;4.466;2023-04-01T13:21:32;15.65;;;6.50;;
66272;SDS011;58450;52.150;4.466;2023-04-01T13:24:23;23.20;;;8.68;;
66272;SDS011;58450;52.150;4.466;2023-04-01T13:27:07;20.45;;;6.68;;
66272;SDS011;58450;52.150;4.466;2023-04-01T13:29:45;13.40;;;5.10;;
66272;SDS011;58450;52.150;4.466;2023-04-01T13:32:29;18.67;;;4.88;;
66272;SDS011;58450;52.150;4.466;2023-04-01T13:35:18;12.27;;;4.13;;
66272;SDS011;58450;52.150;4.466;2023-04-01T13:38:12;11.48;;;3.35;;
66272;SDS011;58450;52.150;4.466;2023-04-01T13:41:11;15.77;;;3.40;;
66272;SDS011;58450;52.150;4.466;2023-04-01T13:44:00;12.82;;;3.50;;
66272;SDS011;58450;52.150;4.466;2023-04-01T13:46:41;11.02;;;3.80;;
66272;SDS011;58450;52.150;4.466;2023-04-01T13:49:33;15.43;;;3.55;;
66272;SDS011;58450;52.150;4.466;2023-04-01T13:52:45;10.80;;;3.13;;
66272;SDS011;58450;52.150;4.466;2023-04-01T13:55:48;10.32;;;2.95;;
66272;SDS011;58450;52.150;4.466;2023-04-01T13:58:34;9.68;;;3.38;;
66272;SDS011;58450;52.150;4.466;2023-04-01T14:01:21;13.52;;;3.40;;
66272;SDS011;58450;52.150;4.466;2023-04-01T14:04:03;14.75;;;3.88;;
66272;SDS011;58450;52.150;4.466;2023-04-01T14:07:17;9.52;;;2.90;;
66272;SDS011;58450;52.150;4.466;2023-04-01T14:10:06;12.35;;;3.65;;
66272;SDS011;58450;52.150;4.466;2023-04-01T14:12:47;9.82;;;3.40;;
66272;SDS011;58450;52.150;4.466;2023-04-01T14:15:48;11.48;;;3.28;;
66272;SDS011;58450;52.150;4.466;2023-04-01T14:18:49;11.13;;;3.05;;
66272;SDS011;58450;52.150;4.466;2023-04-01T14:21:38;11.80;;;3.30;;
66272;SDS011;58450;52.150;4.466;2023-04-01T14:24:22;12.15;;;3.50;;
66272;SDS011;58450;52.150;4.466;2023-04-01T14:30:31;16.52;;;3.88;;
66272;SDS011;58450;52.150;4.466;2023-04-01T14:33:21;10.60;;;3.33;;
66272;SDS011;58450;52.150;4.466;2023-04-01T14:36:13;11.52;;;3.45;;
66272;SDS011;58450;52.150;4.466;2023-04-01T14:42:12;13.68;;;3.83;;
66272;SDS011;58450;52.150;4.466;2023-04-01T14:45:08;11.90;;;3.97;;
66272;SDS011;58450;52.150;4.466;2023-04-01T14:48:14;15.20;;;4.25;;
66272;SDS011;58450;52.150;4.466;2023-04-01T14:50:52;13.32;;;4.05;;
66272;SDS011;58450;52.150;4.466;2023-04-01T14:53:28;12.70;;;3.85;;
66272;SDS011;58450;52.150;4.466;2023-04-01T14:56:01;13.05;;;4.25;;
66272;SDS011;58450;52.150;4.466;2023-04-01T14:58:39;15.27;;;4.18;;
66272;SDS011;58450;52.150;4.466;2023-04-01T15:01:15;13.40;;;4.25;;
66272;SDS011;58450;52.150;4.466;2023-04-01T15:04:05;15.68;;;4.53;;
66272;SDS011;58450;52.150;4.466;2023-04-01T15:07:03;13.15;;;4.13;;
66272;SDS011;58450;52.150;4.466;2023-04-01T15:09:53;9.30;;;3.55;;
66272;SDS011;58450;52.150;4.466;2023-04-01T15:12:34;11.82;;;3.78;;
66272;SDS011;58450;52.150;4.466;2023-04-01T15:15:27;12.73;;;4.10;;
66272;SDS011;58450;52.150;4.466;2023-04-01T15:18:25;12.82;;;3.78;;
66272;SDS011;58450;52.150;4.466;2023-04-01T15:21:17;12.70;;;3.90;;
66272;SDS011;58450;52.150;4.466;2023-04-01T15:24:02;11.90;;;4.00;;
66272;SDS011;58450;52.150;4.466;2023-04-01T15:26:51;12.15;;;4.60;;
66272;SDS011;58450;52.150;4.466;2023-04-01T15:29:47;10.63;;;3.92;;
66272;SDS011;58450;52.150;4.466;2023-04-01T15:32:46;25.83;;;5.00;;
66272;SDS011;58450;52.150;4.466;2023-04-01T15:35:31;11.25;;;4.25;;
66272;SDS011;58450;52.150;4.466;2023-04-01T15:38:11;14.18;;;3.83;;
66272;SDS011;58450;52.150;4.466;2023-04-01T15:41:01;12.27;;;4.25;;
66272;SDS011;58450;52.150;4.466;2023-04-01T15:43:41;10.80;;;3.42;;
66272;SDS011;58450;52.150;4.466;2023-04-01T15:49:14;13.05;;;4.22;;
66272;SDS011;58450;52.150;4.466;2023-04-01T15:52:05;9.95;;;4.00;;
66272;SDS011;58450;52.150;4.466;2023-04-01T15:55:01;11.60;;;3.97;;
66272;SDS011;58450;52.150;4.466;2023-04-01T15:57:50;11.63;;;4.00;;
66272;SDS011;58450;52.150;4.466;2023-04-01T16:00:46;12.65;;;4.68;;
66272;SDS011;58450;52.150;4.466;2023-04-01T16:03:29;10.68;;;4.43;;
66272;SDS011;58450;52.150;4.466;2023-04-01T16:06:16;9.82;;;4.22;;
66272;SDS011;58450;52.150;4.466;2023-04-01T16:09:12;10.18;;;4.10;;
66272;SDS011;58450;52.150;4.466;2023-04-01T16:12:14;10.85;;;4.85;;
66272;SDS011;58450;52.150;4.466;2023-04-01T16:14:52;8.98;;;3.97;;
66272;SDS011;58450;52.150;4.466;2023-04-01T16:17:44;10.07;;;4.68;;
66272;SDS011;58450;52.150;4.466;2023-04-01T16:20:39;11.38;;;5.90;;
66272;SDS011;58450;52.150;4.466;2023-04-01T16:23:18;9.30;;;4.60;;
66272;SDS011;58450;52.150;4.466;2023-04-01T16:26:01;8.20;;;4.32;;
66272;SDS011;58450;52.150;4.466;2023-04-01T16:28:38;9.13;;;5.15;;
66272;SDS011;58450;52.150;4.466;2023-04-01T16:31:23;6.65;;;4.47;;
66272;SDS011;58450;52.150;4.466;2023-04-01T16:34:04;6.43;;;4.63;;
66272;SDS011;58450;52.150;4.466;2023-04-01T16:36:41;7.55;;;4.72;;
66272;SDS011;58450;52.150;4.466;2023-04-01T16:41:57;7.38;;;4.35;;
66272;SDS011;58450;52.150;4.466;2023-04-01T16:44:50;6.93;;;4.40;;
66272;SDS011;58450;52.150;4.466;2023-04-01T16:47:27;6.38;;;4.40;;
66272;SDS011;58450;52.150;4.466;2023-04-01T16:50:05;6.70;;;4.43;;
66272;SDS011;58450;52.150;4.466;2023-04-01T16:52:48;6.45;;;4.07;;
66272;SDS011;58450;52.150;4.466;2023-04-01T16:55:41;5.47;;;3.60;;
66272;SDS011;58450;52.150;4.466;2023-04-01T16:58:18;7.30;;;4.13;;
66272;SDS011;58450;52.150;4.466;2023-04-01T17:00:53;6.57;;;4.05;;
66272;SDS011;58450;52.150;4.466;2023-04-01T17:03:30;6.53;;;4.10;;
66272;SDS011;58450;52.150;4.466;2023-04-01T17:06:11;10.38;;;4.93;;
66272;SDS011;58450;52.150;4.466;2023-04-01T17:08:56;8.93;;;4.80;;
66272;SDS011;58450;52.150;4.466;2023-04-01T17:11:55;6.38;;;4.22;;
66272;SDS011;58450;52.150;4.466;2023-04-01T17:14:35;5.80;;;3.92;;
66272;SDS011;58450;52.150;4.466;2023-04-01T17:17:22;6.75;;;4.28;;
66272;SDS011;58450;52.150;4.466;2023-04-01T17:20:17;6.43;;;3.75;;
66272;SDS011;58450;52.150;4.466;2023-04-01T17:23:15;7.00;;;4.65;;
66272;SDS011;58450;52.150;4.466;2023-04-01T17:26:01;9.13;;;4.68;;
66272;SDS011;58450;52.150;4.466;2023-04-01T17:28:48;5.80;;;4.20;;
66272;SDS011;58450;52.150;4.466;2023-04-01T17:31:32;6.55;;;4.40;;
66272;SDS011;58450;52.150;4.466;2023-04-01T17:37:19;6.72;;;4.25;;